sensor_id;sensor_type;location;lat;lon;timestamp;P1;durP1;ratioP1;P2;durP2;ratioP2
70169;SDS011;57543;45.442;9.212;2024-01-27T00:00:55;115.15;;;55.63;;
70169;SDS011;57543;45.442;9.212;2024-01-27T00:03:58;117.50;;;54.20;;
70169;SDS011;57543;45.442;9.212;2024-01-27T00:07:03;114.17;;;53.27;;
70169;SDS011;57543;45.442;9.212;2024-01-27T00:10:07;118.75;;;54.08;;
70169;SDS011;57543;45.442;9.212;2024-01-27T00:13:13;120.63;;;53.38;;
70169;SDS011;57543;45.442;9.212;2024-01-27T00:16:17;113.07;;;51.40;;
70169;SDS011;57543;45.442;9.212;2024-01-27T00:19:20;118.53;;;52.05;;
70169;SDS011;57543;45.442;9.212;2024-01-27T00:22:23;115.00;;;53.27;;
70169;SDS011;57543;45.442;9.212;2024-01-27T00:25:29;110.97;;;50.88;;
70169;SDS011;57543;45.442;9.212;2024-01-27T00:28:33;104.97;;;51.00;;
70169;SDS011;57543;45.442;9.212;2024-01-27T00:31:36;113.53;;;51.42;;
70169;SDS011;57543;45.442;9.212;2024-01-27T00:34:40;115.07;;;52.92;;
70169;SDS011;57543;45.442;9.212;2024-01-27T00:37:43;106.20;;;50.33;;
70169;SDS011;57543;45.442;9.212;2024-01-27T00:40:47;115.13;;;53.97;;
70169;SDS011;57543;45.442;9.212;2024-01-27T00:43:51;113.85;;;53.13;;
70169;SDS011;57543;45.442;9.212;2024-01-27T00:46:54;114.63;;;52.85;;
70169;SDS011;57543;45.442;9.212;2024-01-27T00:50:00;115.30;;;52.55;;
70169;SDS011;57543;45.442;9.212;2024-01-27T00:53:04;110.07;;;53.10;;
70169;SDS011;57543;45.442;9.212;2024-01-27T00:56:08;109.43;;;52.92;;
70169;SDS011;57543;45.442;9.212;2024-01-27T00:59:11;113.75;;;51.85;;
70169;SDS011;57543;45.442;9.212;2024-01-27T01:02:15;107.18;;;51.17;;
70169;SDS011;57543;45.442;9.212;2024-01-27T01:05:18;108.38;;;50.85;;
70169;SDS011;57543;45.442;9.212;2024-01-27T01:08:22;105.60;;;50.47;;
70169;SDS011;57543;45.442;9.212;2024-01-27T01:11:26;101.43;;;49.75;;
70169;SDS011;57543;45.442;9.212;2024-01-27T01:14:30;109.47;;;51.70;;
70169;SDS011;57543;45.442;9.212;2024-01-27T01:17:34;105.55;;;51.58;;
70169;SDS011;57543;45.442;9.212;2024-01-27T01:20:37;110.75;;;52.55;;
70169;SDS011;57543;45.442;9.212;2024-01-27T01:23:40;103.20;;;50.53;;
70169;SDS011;57543;45.442;9.212;2024-01-27T01:26:44;107.25;;;49.85;;
70169;SDS011;57543;45.442;9.212;2024-01-27T01:29:47;106.57;;;49.97;;
70169;SDS011;57543;45.442;9.212;2024-01-27T01:32:50;106.75;;;50.33;;
70169;SDS011;57543;45.442;9.212;2024-01-27T01:35:55;106.22;;;50.17;;
70169;SDS011;57543;45.442;9.212;2024-01-27T01:38:58;106.97;;;50.17;;
70169;SDS011;57543;45.442;9.212;2024-01-27T01:42:02;100.03;;;48.85;;
70169;SDS011;57543;45.442;9.212;2024-01-27T01:45:06;108.90;;;51.42;;
70169;SDS011;57543;45.442;9.212;2024-01-27T01:48:09;98.68;;;47.63;;
70169;SDS011;57543;45.442;9.212;2024-01-27T01:51:13;100.32;;;47.80;;
70169;SDS011;57543;45.442;9.212;2024-01-27T01:54:20;96.77;;;47.67;;
70169;SDS011;57543;45.442;9.212;2024-01-27T01:57:25;96.22;;;48.17;;
70169;SDS011;57543;45.442;9.212;2024-01-27T02:00:29;102.60;;;48.30;;
70169;SDS011;57543;45.442;9.212;2024-01-27T02:03:33;96.18;;;46.45;;
70169;SDS011;57543;45.442;9.212;2024-01-27T02:06:37;95.30;;;44.90;;
70169;SDS011;57543;45.442;9.212;2024-01-27T02:09:40;93.50;;;43.43;;
70169;SDS011;57543;45.442;9.212;2024-01-27T02:12:44;83.20;;;41.55;;
70169;SDS011;57543;45.442;9.212;2024-01-27T02:15:48;81.68;;;41.25;;
70169;SDS011;57543;45.442;9.212;2024-01-27T02:18:52;87.05;;;41.95;;
70169;SDS011;57543;45.442;9.212;2024-01-27T02:21:55;89.80;;;41.80;;
70169;SDS011;57543;45.442;9.212;2024-01-27T02:24:59;86.73;;;40.70;;
70169;SDS011;57543;45.442;9.212;2024-01-27T02:28:02;80.72;;;40.80;;
70169;SDS011;57543;45.442;9.212;2024-01-27T02:31:09;84.93;;;42.78;;
70169;SDS011;57543;45.442;9.212;2024-01-27T02:34:12;82.28;;;39.90;;
70169;SDS011;57543;45.442;9.212;2024-01-27T02:37:17;86.32;;;42.90;;
70169;SDS011;57543;45.442;9.212;2024-01-27T02:40:21;81.07;;;40.40;;
70169;SDS011;57543;45.442;9.212;2024-01-27T02:43:27;80.93;;;39.78;;
70169;SDS011;57543;45.442;9.212;2024-01-27T02:46:30;87.45;;;42.03;;
70169;SDS011;57543;45.442;9.212;2024-01-27T02:49:34;80.45;;;41.20;;
70169;SDS011;57543;45.442;9.212;2024-01-27T02:52:39;83.97;;;39.70;;
70169;SDS011;57543;45.442;9.212;2024-01-27T02:55:48;78.13;;;39.57;;
70169;SDS011;57543;45.442;9.212;2024-01-27T02:58:54;75.97;;;38.78;;
70169;SDS011;57543;45.442;9.212;2024-01-27T03:01:58;77.32;;;40.30;;
70169;SDS011;57543;45.442;9.212;2024-01-27T03:05:01;81.78;;;41.33;;
70169;SDS011;57543;45.442;9.212;2024-01-27T03:08:05;80.32;;;39.13;;
70169;SDS011;57543;45.442;9.212;2024-01-27T03:11:09;81.43;;;39.13;;
70169;SDS011;57543;45.442;9.212;2024-01-27T03:14:13;79.18;;;38.67;;
70169;SDS011;57543;45.442;9.212;2024-01-27T03:17:17;78.90;;;38.30;;
70169;SDS011;57543;45.442;9.212;2024-01-27T03:20:21;88.28;;;40.80;;
70169;SDS011;57543;45.442;9.212;2024-01-27T03:23:24;80.50;;;38.00;;
70169;SDS011;57543;45.442;9.212;2024-01-27T03:26:28;75.13;;;37.27;;
70169;SDS011;57543;45.442;9.212;2024-01-27T03:29:32;70.78;;;36.83;;
70169;SDS011;57543;45.442;9.212;2024-01-27T03:32:35;72.05;;;36.65;;
70169;SDS011;57543;45.442;9.212;2024-01-27T03:35:39;77.53;;;37.75;;
70169;SDS011;57543;45.442;9.212;2024-01-27T03:38:43;79.95;;;38.40;;
70169;SDS011;57543;45.442;9.212;2024-01-27T03:41:46;75.93;;;38.13;;
70169;SDS011;57543;45.442;9.212;2024-01-27T03:44:50;81.30;;;38.33;;
70169;SDS011;57543;45.442;9.212;2024-01-27T03:47:53;79.32;;;38.75;;
70169;SDS011;57543;45.442;9.212;2024-01-27T03:50:57;78.55;;;38.53;;
70169;SDS011;57543;45.442;9.212;2024-01-27T03:54:01;77.05;;;37.83;;
70169;SDS011;57543;45.442;9.212;2024-01-27T03:57:04;76.50;;;37.20;;
70169;SDS011;57543;45.442;9.212;2024-01-27T04:00:09;76.25;;;38.33;;
70169;SDS011;57543;45.442;9.212;2024-01-27T04:03:16;76.03;;;38.28;;
70169;SDS011;57543;45.442;9.212;2024-01-27T04:06:20;82.72;;;39.10;;
70169;SDS011;57543;45.442;9.212;2024-01-27T04:09:23;80.20;;;38.20;;
70169;SDS011;57543;45.442;9.212;2024-01-27T04:12:27;74.63;;;38.07;;
70169;SDS011;57543;45.442;9.212;2024-01-27T04:15:39;75.45;;;37.75;;
70169;SDS011;57543;45.442;9.212;2024-01-27T04:18:43;76.90;;;37.58;;
70169;SDS011;57543;45.442;9.212;2024-01-27T04:21:47;81.10;;;37.50;;
70169;SDS011;57543;45.442;9.212;2024-01-27T04:25:08;80.70;;;39.05;;
70169;SDS011;57543;45.442;9.212;2024-01-27T04:28:12;77.57;;;37.57;;
70169;SDS011;57543;45.442;9.212;2024-01-27T04:31:16;79.50;;;39.17;;
70169;SDS011;57543;45.442;9.212;2024-01-27T04:34:20;80.82;;;39.42;;
70169;SDS011;57543;45.442;9.212;2024-01-27T04:37:24;79.30;;;38.28;;
70169;SDS011;57543;45.442;9.212;2024-01-27T04:40:28;79.60;;;39.03;;
70169;SDS011;57543;45.442;9.212;2024-01-27T04:43:32;75.70;;;37.73;;
70169;SDS011;57543;45.442;9.212;2024-01-27T04:46:35;81.03;;;38.92;;
70169;SDS011;57543;45.442;9.212;2024-01-27T04:49:39;83.95;;;40.25;;
70169;SDS011;57543;45.442;9.212;2024-01-27T04:52:43;85.38;;;40.67;;
70169;SDS011;57543;45.442;9.212;2024-01-27T04:55:47;77.07;;;37.97;;
70169;SDS011;57543;45.442;9.212;2024-01-27T04:58:52;80.07;;;39.03;;
70169;SDS011;57543;45.442;9.212;2024-01-27T05:01:55;82.35;;;39.85;;
70169;SDS011;57543;45.442;9.212;2024-01-27T05:04:58;83.85;;;39.58;;
70169;SDS011;57543;45.442;9.212;2024-01-27T05:08:03;81.00;;;38.67;;
70169;SDS011;57543;45.442;9.212;2024-01-27T05:11:06;79.97;;;38.92;;
70169;SDS011;57543;45.442;9.212;2024-01-27T05:14:10;80.63;;;38.03;;
70169;SDS011;57543;45.442;9.212;2024-01-27T05:17:14;84.03;;;39.38;;
70169;SDS011;57543;45.442;9.212;2024-01-27T05:20:18;79.75;;;39.03;;
70169;SDS011;57543;45.442;9.212;2024-01-27T05:23:22;80.47;;;37.60;;
70169;SDS011;57543;45.442;9.212;2024-01-27T05:26:26;79.60;;;39.33;;
70169;SDS011;57543;45.442;9.212;2024-01-27T05:29:30;94.17;;;42.23;;
70169;SDS011;57543;45.442;9.212;2024-01-27T05:32:33;79.00;;;37.85;;
70169;SDS011;57543;45.442;9.212;2024-01-27T05:35:37;87.93;;;39.40;;
70169;SDS011;57543;45.442;9.212;2024-01-27T05:38:44;80.10;;;37.78;;
70169;SDS011;57543;45.442;9.212;2024-01-27T05:41:47;78.60;;;37.58;;
70169;SDS011;57543;45.442;9.212;2024-01-27T05:44:51;85.73;;;38.97;;
70169;SDS011;57543;45.442;9.212;2024-01-27T05:47:55;79.63;;;39.22;;
70169;SDS011;57543;45.442;9.212;2024-01-27T05:50:59;100.43;;;43.10;;
70169;SDS011;57543;45.442;9.212;2024-01-27T05:54:03;81.50;;;38.75;;
70169;SDS011;57543;45.442;9.212;2024-01-27T05:57:07;87.30;;;38.97;;
70169;SDS011;57543;45.442;9.212;2024-01-27T06:00:11;81.57;;;39.13;;
70169;SDS011;57543;45.442;9.212;2024-01-27T06:03:15;91.88;;;38.88;;
70169;SDS011;57543;45.442;9.212;2024-01-27T06:06:19;84.15;;;38.78;;
70169;SDS011;57543;45.442;9.212;2024-01-27T06:09:23;87.55;;;41.13;;
70169;SDS011;57543;45.442;9.212;2024-01-27T06:12:29;87.65;;;40.67;;
70169;SDS011;57543;45.442;9.212;2024-01-27T06:15:33;93.43;;;41.83;;
70169;SDS011;57543;45.442;9.212;2024-01-27T06:18:37;92.43;;;40.97;;
70169;SDS011;57543;45.442;9.212;2024-01-27T06:21:40;90.72;;;39.13;;
70169;SDS011;57543;45.442;9.212;2024-01-27T06:24:43;88.65;;;40.83;;
70169;SDS011;57543;45.442;9.212;2024-01-27T06:27:47;92.35;;;41.20;;
70169;SDS011;57543;45.442;9.212;2024-01-27T06:30:51;93.07;;;40.50;;
70169;SDS011;57543;45.442;9.212;2024-01-27T06:33:55;92.63;;;40.47;;
70169;SDS011;57543;45.442;9.212;2024-01-27T06:36:58;94.30;;;42.15;;
70169;SDS011;57543;45.442;9.212;2024-01-27T06:40:02;93.45;;;42.47;;
70169;SDS011;57543;45.442;9.212;2024-01-27T06:43:06;98.10;;;40.75;;
70169;SDS011;57543;45.442;9.212;2024-01-27T06:46:10;106.10;;;42.20;;
70169;SDS011;57543;45.442;9.212;2024-01-27T06:49:13;118.40;;;44.05;;
70169;SDS011;57543;45.442;9.212;2024-01-27T06:52:17;105.78;;;43.47;;
70169;SDS011;57543;45.442;9.212;2024-01-27T06:55:23;117.63;;;45.33;;
70169;SDS011;57543;45.442;9.212;2024-01-27T06:58:26;121.05;;;43.80;;
70169;SDS011;57543;45.442;9.212;2024-01-27T07:01:29;113.10;;;43.37;;
70169;SDS011;57543;45.442;9.212;2024-01-27T07:04:33;107.93;;;42.60;;
70169;SDS011;57543;45.442;9.212;2024-01-27T07:07:37;121.72;;;44.17;;
70169;SDS011;57543;45.442;9.212;2024-01-27T07:10:41;113.95;;;42.95;;
70169;SDS011;57543;45.442;9.212;2024-01-27T07:13:44;106.85;;;41.88;;
70169;SDS011;57543;45.442;9.212;2024-01-27T07:16:48;117.13;;;44.43;;
70169;SDS011;57543;45.442;9.212;2024-01-27T07:19:55;110.95;;;43.88;;
70169;SDS011;57543;45.442;9.212;2024-01-27T07:22:58;119.25;;;42.72;;
70169;SDS011;57543;45.442;9.212;2024-01-27T07:26:07;108.05;;;42.78;;
70169;SDS011;57543;45.442;9.212;2024-01-27T07:29:13;119.70;;;44.13;;
70169;SDS011;57543;45.442;9.212;2024-01-27T07:32:17;111.77;;;42.77;;
70169;SDS011;57543;45.442;9.212;2024-01-27T07:35:21;104.90;;;42.05;;
70169;SDS011;57543;45.442;9.212;2024-01-27T07:38:24;110.50;;;42.50;;
70169;SDS011;57543;45.442;9.212;2024-01-27T07:41:28;113.22;;;42.92;;
70169;SDS011;57543;45.442;9.212;2024-01-27T07:44:34;119.55;;;43.97;;
70169;SDS011;57543;45.442;9.212;2024-01-27T07:47:38;113.70;;;44.67;;
70169;SDS011;57543;45.442;9.212;2024-01-27T07:50:42;115.20;;;44.80;;
70169;SDS011;57543;45.442;9.212;2024-01-27T07:53:49;112.53;;;43.20;;
70169;SDS011;57543;45.442;9.212;2024-01-27T07:56:54;110.90;;;42.25;;
70169;SDS011;57543;45.442;9.212;2024-01-27T08:00:01;107.78;;;40.88;;
70169;SDS011;57543;45.442;9.212;2024-01-27T08:03:08;110.93;;;42.17;;
70169;SDS011;57543;45.442;9.212;2024-01-27T08:06:15;106.50;;;41.17;;
70169;SDS011;57543;45.442;9.212;2024-01-27T08:09:23;104.13;;;41.40;;
70169;SDS011;57543;45.442;9.212;2024-01-27T08:12:28;112.97;;;44.45;;
70169;SDS011;57543;45.442;9.212;2024-01-27T08:15:32;99.68;;;42.22;;
70169;SDS011;57543;45.442;9.212;2024-01-27T08:18:36;97.63;;;41.00;;
70169;SDS011;57543;45.442;9.212;2024-01-27T08:21:42;98.07;;;41.53;;
70169;SDS011;57543;45.442;9.212;2024-01-27T08:24:46;97.10;;;40.22;;
70169;SDS011;57543;45.442;9.212;2024-01-27T08:27:50;89.95;;;39.05;;
70169;SDS011;57543;45.442;9.212;2024-01-27T08:30:53;95.50;;;41.70;;
70169;SDS011;57543;45.442;9.212;2024-01-27T08:33:57;105.27;;;42.63;;
70169;SDS011;57543;45.442;9.212;2024-01-27T08:37:01;96.75;;;41.20;;
70169;SDS011;57543;45.442;9.212;2024-01-27T08:40:09;97.28;;;40.53;;
70169;SDS011;57543;45.442;9.212;2024-01-27T08:43:15;102.63;;;41.45;;
70169;SDS011;57543;45.442;9.212;2024-01-27T08:46:19;106.53;;;41.75;;
70169;SDS011;57543;45.442;9.212;2024-01-27T08:49:25;100.47;;;40.93;;
70169;SDS011;57543;45.442;9.212;2024-01-27T08:52:28;101.10;;;41.00;;
70169;SDS011;57543;45.442;9.212;2024-01-27T08:55:32;105.15;;;41.85;;
70169;SDS011;57543;45.442;9.212;2024-01-27T08:58:37;103.22;;;41.05;;
70169;SDS011;57543;45.442;9.212;2024-01-27T09:01:41;105.18;;;41.90;;
70169;SDS011;57543;45.442;9.212;2024-01-27T09:04:45;103.43;;;40.27;;
70169;SDS011;57543;45.442;9.212;2024-01-27T09:07:52;114.07;;;43.15;;
70169;SDS011;57543;45.442;9.212;2024-01-27T09:10:55;108.80;;;42.05;;
70169;SDS011;57543;45.442;9.212;2024-01-27T09:14:00;104.72;;;41.10;;
70169;SDS011;57543;45.442;9.212;2024-01-27T09:17:04;106.88;;;42.17;;
70169;SDS011;57543;45.442;9.212;2024-01-27T09:20:08;100.57;;;42.63;;
70169;SDS011;57543;45.442;9.212;2024-01-27T09:23:12;96.47;;;40.00;;
70169;SDS011;57543;45.442;9.212;2024-01-27T09:26:16;92.63;;;40.58;;
70169;SDS011;57543;45.442;9.212;2024-01-27T09:29:21;98.30;;;40.25;;
70169;SDS011;57543;45.442;9.212;2024-01-27T09:32:26;97.70;;;41.58;;
70169;SDS011;57543;45.442;9.212;2024-01-27T09:35:29;86.83;;;39.30;;
70169;SDS011;57543;45.442;9.212;2024-01-27T09:38:32;99.22;;;42.08;;
70169;SDS011;57543;45.442;9.212;2024-01-27T09:41:36;102.25;;;41.47;;
70169;SDS011;57543;45.442;9.212;2024-01-27T09:44:44;93.28;;;41.28;;
70169;SDS011;57543;45.442;9.212;2024-01-27T09:47:48;96.15;;;41.35;;
70169;SDS011;57543;45.442;9.212;2024-01-27T09:50:52;100.93;;;43.03;;
70169;SDS011;57543;45.442;9.212;2024-01-27T09:53:58;97.22;;;40.35;;
70169;SDS011;57543;45.442;9.212;2024-01-27T09:57:01;89.57;;;39.65;;
70169;SDS011;57543;45.442;9.212;2024-01-27T10:00:06;97.10;;;42.13;;
70169;SDS011;57543;45.442;9.212;2024-01-27T10:03:14;94.10;;;40.47;;
70169;SDS011;57543;45.442;9.212;2024-01-27T10:06:20;90.53;;;39.60;;
70169;SDS011;57543;45.442;9.212;2024-01-27T10:09:25;84.35;;;38.63;;
70169;SDS011;57543;45.442;9.212;2024-01-27T10:12:31;84.43;;;37.95;;
70169;SDS011;57543;45.442;9.212;2024-01-27T10:15:36;84.88;;;39.35;;
70169;SDS011;57543;45.442;9.212;2024-01-27T10:18:40;83.00;;;38.97;;
70169;SDS011;57543;45.442;9.212;2024-01-27T10:21:44;81.03;;;39.00;;
70169;SDS011;57543;45.442;9.212;2024-01-27T10:24:49;83.82;;;39.70;;
70169;SDS011;57543;45.442;9.212;2024-01-27T10:27:55;81.15;;;39.08;;
70169;SDS011;57543;45.442;9.212;2024-01-27T10:34:13;83.55;;;38.35;;
70169;SDS011;57543;45.442;9.212;2024-01-27T10:37:23;87.70;;;39.37;;
70169;SDS011;57543;45.442;9.212;2024-01-27T10:40:28;84.82;;;38.20;;
70169;SDS011;57543;45.442;9.212;2024-01-27T10:43:35;86.30;;;40.05;;
70169;SDS011;57543;45.442;9.212;2024-01-27T10:46:42;75.70;;;36.92;;
70169;SDS011;57543;45.442;9.212;2024-01-27T10:49:49;78.00;;;36.88;;
70169;SDS011;57543;45.442;9.212;2024-01-27T10:52:57;72.17;;;37.07;;
70169;SDS011;57543;45.442;9.212;2024-01-27T10:56:04;72.07;;;34.45;;
70169;SDS011;57543;45.442;9.212;2024-01-27T10:59:13;67.65;;;34.30;;
70169;SDS011;57543;45.442;9.212;2024-01-27T11:02:20;65.78;;;32.53;;
70169;SDS011;57543;45.442;9.212;2024-01-27T11:05:28;59.17;;;32.08;;
70169;SDS011;57543;45.442;9.212;2024-01-27T11:08:34;65.97;;;33.40;;
70169;SDS011;57543;45.442;9.212;2024-01-27T11:11:39;63.22;;;32.25;;
70169;SDS011;57543;45.442;9.212;2024-01-27T11:14:48;62.50;;;33.30;;
70169;SDS011;57543;45.442;9.212;2024-01-27T11:18:01;60.03;;;32.00;;
70169;SDS011;57543;45.442;9.212;2024-01-27T11:21:06;58.65;;;32.50;;
70169;SDS011;57543;45.442;9.212;2024-01-27T11:24:17;62.00;;;32.97;;
70169;SDS011;57543;45.442;9.212;2024-01-27T11:27:33;68.95;;;34.65;;
70169;SDS011;57543;45.442;9.212;2024-01-27T11:30:37;58.35;;;33.55;;
70169;SDS011;57543;45.442;9.212;2024-01-27T11:33:43;56.42;;;32.67;;
70169;SDS011;57543;45.442;9.212;2024-01-27T11:36:50;55.67;;;33.65;;
70169;SDS011;57543;45.442;9.212;2024-01-27T11:40:03;52.33;;;32.57;;
70169;SDS011;57543;45.442;9.212;2024-01-27T11:43:09;54.75;;;34.15;;
70169;SDS011;57543;45.442;9.212;2024-01-27T11:46:17;51.67;;;32.30;;
70169;SDS011;57543;45.442;9.212;2024-01-27T11:49:20;52.55;;;34.00;;
70169;SDS011;57543;45.442;9.212;2024-01-27T11:52:24;50.97;;;32.75;;
70169;SDS011;57543;45.442;9.212;2024-01-27T11:55:30;50.23;;;32.57;;
70169;SDS011;57543;45.442;9.212;2024-01-27T11:58:35;50.60;;;32.83;;
70169;SDS011;57543;45.442;9.212;2024-01-27T12:05:44;51.25;;;31.80;;
70169;SDS011;57543;45.442;9.212;2024-01-27T12:08:52;52.92;;;33.08;;
70169;SDS011;57543;45.442;9.212;2024-01-27T12:11:57;51.53;;;32.90;;
70169;SDS011;57543;45.442;9.212;2024-01-27T12:15:00;52.75;;;32.53;;
70169;SDS011;57543;45.442;9.212;2024-01-27T12:18:05;56.72;;;33.22;;
70169;SDS011;57543;45.442;9.212;2024-01-27T12:21:10;51.47;;;31.60;;
70169;SDS011;57543;45.442;9.212;2024-01-27T12:24:25;56.55;;;33.13;;
70169;SDS011;57543;45.442;9.212;2024-01-27T12:27:49;55.60;;;32.17;;
70169;SDS011;57543;45.442;9.212;2024-01-27T12:30:53;52.75;;;31.52;;
70169;SDS011;57543;45.442;9.212;2024-01-27T12:33:57;57.17;;;32.42;;
70169;SDS011;57543;45.442;9.212;2024-01-27T12:37:02;54.83;;;32.10;;
70169;SDS011;57543;45.442;9.212;2024-01-27T12:40:22;55.60;;;31.58;;
70169;SDS011;57543;45.442;9.212;2024-01-27T12:43:27;60.03;;;32.27;;
70169;SDS011;57543;45.442;9.212;2024-01-27T12:46:30;60.00;;;32.63;;
70169;SDS011;57543;45.442;9.212;2024-01-27T12:49:35;57.20;;;33.13;;
70169;SDS011;57543;45.442;9.212;2024-01-27T12:52:39;60.53;;;33.28;;
70169;SDS011;57543;45.442;9.212;2024-01-27T12:55:43;53.55;;;31.20;;
70169;SDS011;57543;45.442;9.212;2024-01-27T12:58:47;56.20;;;31.73;;
70169;SDS011;57543;45.442;9.212;2024-01-27T13:01:52;57.42;;;33.30;;
70169;SDS011;57543;45.442;9.212;2024-01-27T13:04:56;56.35;;;31.80;;
70169;SDS011;57543;45.442;9.212;2024-01-27T13:07:59;54.60;;;31.83;;
70169;SDS011;57543;45.442;9.212;2024-01-27T13:11:03;52.83;;;31.33;;
70169;SDS011;57543;45.442;9.212;2024-01-27T13:14:06;54.87;;;29.93;;
70169;SDS011;57543;45.442;9.212;2024-01-27T13:17:12;54.92;;;30.75;;
70169;SDS011;57543;45.442;9.212;2024-01-27T13:20:20;54.25;;;31.20;;
70169;SDS011;57543;45.442;9.212;2024-01-27T13:23:23;53.40;;;30.38;;
70169;SDS011;57543;45.442;9.212;2024-01-27T13:26:27;54.00;;;31.60;;
70169;SDS011;57543;45.442;9.212;2024-01-27T13:29:31;53.97;;;31.07;;
70169;SDS011;57543;45.442;9.212;2024-01-27T13:32:35;53.50;;;30.38;;
70169;SDS011;57543;45.442;9.212;2024-01-27T13:35:41;50.08;;;29.95;;
70169;SDS011;57543;45.442;9.212;2024-01-27T13:38:49;54.80;;;31.27;;
70169;SDS011;57543;45.442;9.212;2024-01-27T13:41:53;53.03;;;31.05;;
70169;SDS011;57543;45.442;9.212;2024-01-27T13:44:57;50.43;;;29.47;;
70169;SDS011;57543;45.442;9.212;2024-01-27T13:48:03;49.97;;;29.05;;
70169;SDS011;57543;45.442;9.212;2024-01-27T13:51:08;51.50;;;29.08;;
70169;SDS011;57543;45.442;9.212;2024-01-27T13:54:12;52.80;;;30.58;;
70169;SDS011;57543;45.442;9.212;2024-01-27T13:57:19;52.35;;;30.25;;
70169;SDS011;57543;45.442;9.212;2024-01-27T14:00:23;52.07;;;30.23;;
70169;SDS011;57543;45.442;9.212;2024-01-27T14:03:29;50.42;;;30.98;;
70169;SDS011;57543;45.442;9.212;2024-01-27T14:06:33;50.03;;;29.17;;
70169;SDS011;57543;45.442;9.212;2024-01-27T14:09:40;49.53;;;29.63;;
70169;SDS011;57543;45.442;9.212;2024-01-27T14:12:43;49.03;;;28.83;;
70169;SDS011;57543;45.442;9.212;2024-01-27T14:15:46;53.17;;;29.20;;
70169;SDS011;57543;45.442;9.212;2024-01-27T14:18:50;50.72;;;28.25;;
70169;SDS011;57543;45.442;9.212;2024-01-27T14:21:54;52.65;;;30.15;;
70169;SDS011;57543;45.442;9.212;2024-01-27T14:24:58;49.78;;;29.65;;
70169;SDS011;57543;45.442;9.212;2024-01-27T14:28:04;52.03;;;28.88;;
70169;SDS011;57543;45.442;9.212;2024-01-27T14:31:10;49.77;;;28.73;;
70169;SDS011;57543;45.442;9.212;2024-01-27T14:34:14;51.13;;;29.38;;
70169;SDS011;57543;45.442;9.212;2024-01-27T14:37:18;57.95;;;31.52;;
70169;SDS011;57543;45.442;9.212;2024-01-27T14:40:22;52.35;;;30.08;;
70169;SDS011;57543;45.442;9.212;2024-01-27T14:43:25;57.13;;;31.58;;
70169;SDS011;57543;45.442;9.212;2024-01-27T14:46:30;52.80;;;29.80;;
70169;SDS011;57543;45.442;9.212;2024-01-27T14:49:43;55.55;;;31.67;;
70169;SDS011;57543;45.442;9.212;2024-01-27T14:52:48;57.10;;;31.05;;
70169;SDS011;57543;45.442;9.212;2024-01-27T14:55:52;55.47;;;32.70;;
70169;SDS011;57543;45.442;9.212;2024-01-27T14:58:57;55.35;;;31.27;;
70169;SDS011;57543;45.442;9.212;2024-01-27T15:02:02;59.27;;;33.83;;
70169;SDS011;57543;45.442;9.212;2024-01-27T15:05:06;54.53;;;32.13;;
70169;SDS011;57543;45.442;9.212;2024-01-27T15:08:11;54.20;;;31.25;;
70169;SDS011;57543;45.442;9.212;2024-01-27T15:11:15;54.88;;;31.90;;
70169;SDS011;57543;45.442;9.212;2024-01-27T15:14:21;58.60;;;35.35;;
70169;SDS011;57543;45.442;9.212;2024-01-27T15:17:25;67.40;;;39.10;;
70169;SDS011;57543;45.442;9.212;2024-01-27T15:20:28;67.25;;;39.58;;
70169;SDS011;57543;45.442;9.212;2024-01-27T15:23:32;70.78;;;40.58;;
70169;SDS011;57543;45.442;9.212;2024-01-27T15:26:36;69.13;;;38.60;;
70169;SDS011;57543;45.442;9.212;2024-01-27T15:29:41;72.35;;;39.00;;
70169;SDS011;57543;45.442;9.212;2024-01-27T15:32:46;66.17;;;38.67;;
70169;SDS011;57543;45.442;9.212;2024-01-27T15:35:50;74.28;;;40.03;;
70169;SDS011;57543;45.442;9.212;2024-01-27T15:38:54;67.55;;;38.28;;
70169;SDS011;57543;45.442;9.212;2024-01-27T15:41:58;66.03;;;40.22;;
70169;SDS011;57543;45.442;9.212;2024-01-27T15:45:08;68.22;;;37.65;;
70169;SDS011;57543;45.442;9.212;2024-01-27T15:48:32;66.67;;;37.77;;
70169;SDS011;57543;45.442;9.212;2024-01-27T15:51:37;71.32;;;39.47;;
70169;SDS011;57543;45.442;9.212;2024-01-27T15:54:43;77.68;;;39.63;;
70169;SDS011;57543;45.442;9.212;2024-01-27T15:57:50;70.65;;;37.90;;
70169;SDS011;57543;45.442;9.212;2024-01-27T16:00:54;69.10;;;38.30;;
70169;SDS011;57543;45.442;9.212;2024-01-27T16:04:01;71.67;;;39.73;;
70169;SDS011;57543;45.442;9.212;2024-01-27T16:07:05;67.70;;;38.00;;
70169;SDS011;57543;45.442;9.212;2024-01-27T16:10:08;72.70;;;38.22;;
70169;SDS011;57543;45.442;9.212;2024-01-27T16:13:12;73.35;;;39.92;;
70169;SDS011;57543;45.442;9.212;2024-01-27T16:16:16;74.40;;;40.10;;
70169;SDS011;57543;45.442;9.212;2024-01-27T16:19:23;74.17;;;39.77;;
70169;SDS011;57543;45.442;9.212;2024-01-27T16:22:26;76.45;;;42.42;;
70169;SDS011;57543;45.442;9.212;2024-01-27T16:25:30;88.38;;;46.75;;
70169;SDS011;57543;45.442;9.212;2024-01-27T16:28:33;79.32;;;42.35;;
70169;SDS011;57543;45.442;9.212;2024-01-27T16:31:40;81.75;;;44.13;;
70169;SDS011;57543;45.442;9.212;2024-01-27T16:34:46;80.50;;;42.97;;
70169;SDS011;57543;45.442;9.212;2024-01-27T16:37:55;100.40;;;50.17;;
70169;SDS011;57543;45.442;9.212;2024-01-27T16:41:01;83.57;;;44.38;;
70169;SDS011;57543;45.442;9.212;2024-01-27T16:44:04;84.70;;;46.10;;
70169;SDS011;57543;45.442;9.212;2024-01-27T16:47:08;88.22;;;45.72;;
70169;SDS011;57543;45.442;9.212;2024-01-27T16:50:12;81.67;;;43.97;;
70169;SDS011;57543;45.442;9.212;2024-01-27T16:53:19;89.47;;;44.08;;
70169;SDS011;57543;45.442;9.212;2024-01-27T16:56:23;80.80;;;43.95;;
70169;SDS011;57543;45.442;9.212;2024-01-27T16:59:28;82.60;;;43.47;;
70169;SDS011;57543;45.442;9.212;2024-01-27T17:02:32;89.00;;;46.22;;
70169;SDS011;57543;45.442;9.212;2024-01-27T17:05:41;85.30;;;46.37;;
70169;SDS011;57543;45.442;9.212;2024-01-27T17:08:46;93.38;;;48.22;;
70169;SDS011;57543;45.442;9.212;2024-01-27T17:11:53;93.03;;;47.00;;
70169;SDS011;57543;45.442;9.212;2024-01-27T17:15:00;84.63;;;46.35;;
70169;SDS011;57543;45.442;9.212;2024-01-27T17:18:05;89.95;;;45.15;;
70169;SDS011;57543;45.442;9.212;2024-01-27T17:21:10;92.27;;;47.00;;
70169;SDS011;57543;45.442;9.212;2024-01-27T17:24:14;93.93;;;47.55;;
70169;SDS011;57543;45.442;9.212;2024-01-27T17:27:18;92.90;;;44.80;;
70169;SDS011;57543;45.442;9.212;2024-01-27T17:30:24;96.53;;;48.55;;
70169;SDS011;57543;45.442;9.212;2024-01-27T17:33:30;91.30;;;45.83;;
70169;SDS011;57543;45.442;9.212;2024-01-27T17:36:34;98.73;;;48.10;;
70169;SDS011;57543;45.442;9.212;2024-01-27T17:39:38;94.57;;;46.95;;
70169;SDS011;57543;45.442;9.212;2024-01-27T17:42:42;92.28;;;45.97;;
70169;SDS011;57543;45.442;9.212;2024-01-27T17:45:46;98.97;;;48.28;;
70169;SDS011;57543;45.442;9.212;2024-01-27T17:48:49;106.38;;;49.17;;
70169;SDS011;57543;45.442;9.212;2024-01-27T17:51:52;103.37;;;49.53;;
70169;SDS011;57543;45.442;9.212;2024-01-27T17:55:06;103.88;;;48.22;;
70169;SDS011;57543;45.442;9.212;2024-01-27T17:58:13;102.68;;;49.25;;
70169;SDS011;57543;45.442;9.212;2024-01-27T18:01:18;99.35;;;48.03;;
70169;SDS011;57543;45.442;9.212;2024-01-27T18:04:25;97.90;;;46.90;;